A.bryukhovetskiy — UCWK — position and weather

sailwx.info

Track history (hours):
 
Tides and Currents Weather Stations Pressure Air Temp Water Temp Dewpoint Dewpoint Depression Visibility Wind Speed Wind Dir Waves Ship Positions

A.bryukhovetskiy

Last reported at 2017-Dec-15 09:19 UTC. Time now 2017-Dec-16 01:27 UTC.
Position N 45°06' E 036°33'.

Length 138 m; draft 3.9 m.

Type: Cargo ship. MMSI: 273378000.

Date/timePositionNaut miles runAvg speedWind from/ knotsBaromVisibWave heightAir tempDewpointWater temp
2017-Dec-15 09:19N 45°06' E 036°33'2 4.7
2017-Dec-15 08:55N 45°08' E 036°32'3 7.0
2017-Dec-15 08:29N 45°10' E 036°29'3 7.0
2017-Dec-15 08:00N 45°14' E 036°28'5 6.5
2017-Dec-15 07:17N 45°18' E 036°29'2 6.6
2017-Dec-15 06:57N 45°19' E 036°32'3 6.3
2017-Dec-15 06:30N 45°20' E 036°36'3 6.3
2017-Dec-15 06:00N 45°22' E 036°40'3 5.4
2017-Dec-15 05:30N 45°24' E 036°41'3 6.2
2017-Dec-15 05:00N 45°28' E 036°41'2 4.3
2017-Dec-15 04:30N 45°29' E 036°39'0 0.0
2017-Dec-14 12:42N 45°29' E 036°39'0 0.0
2017-Dec-14 07:06N 45°29' E 036°39'0 0.0
2017-Dec-14 05:12N 45°29' E 036°39'0 0.0
2017-Dec-14 05:00N 45°29' E 036°39'  
2017-Dec-08 23:09N 45°32' E 036°46'1 8.2
2017-Dec-08 23:00N 45°31' E 036°45'4 8.2
2017-Dec-08 22:30N 45°28' E 036°42'4 8.2
2017-Dec-08 22:00N 45°24' E 036°41'4 7.4
2017-Dec-08 21:30N 45°21' E 036°38'4 8.7
2017-Dec-08 21:00N 45°19' E 036°32'4 7.3
2017-Dec-08 20:30N 45°16' E 036°29'4 6.8
2017-Dec-08 19:59N 45°13' E 036°29'  
Track history (hours):
 
Tides and Currents Weather Stations Pressure Air Temp Water Temp Dewpoint Dewpoint Depression Visibility Wind Speed Wind Dir Waves Ship Positions

A.bryukhovetskiy

Last reported at 2017-Dec-15 09:19 UTC. Time now 2017-Dec-16 01:27 UTC.
Position N 45°06' E 036°33'.

Length 138 m; draft 3.9 m.

Type: Cargo ship. MMSI: 273378000.

Date/timePositionNaut miles runAvg speedWind from/ knotsBaromVisibWave heightAir tempDewpointWater temp
2017-Dec-15 09:19N 45°06' E 036°33'2 4.7
2017-Dec-15 08:55N 45°08' E 036°32'3 7.0
2017-Dec-15 08:29N 45°10' E 036°29'3 7.0
2017-Dec-15 08:00N 45°14' E 036°28'5 6.5
2017-Dec-15 07:17N 45°18' E 036°29'2 6.6
2017-Dec-15 06:57N 45°19' E 036°32'3 6.3
2017-Dec-15 06:30N 45°20' E 036°36'3 6.3
2017-Dec-15 06:00N 45°22' E 036°40'3 5.4
2017-Dec-15 05:30N 45°24' E 036°41'3 6.2
2017-Dec-15 05:00N 45°28' E 036°41'2 4.3
2017-Dec-15 04:30N 45°29' E 036°39'0 0.0
2017-Dec-14 12:42N 45°29' E 036°39'0 0.0
2017-Dec-14 07:06N 45°29' E 036°39'0 0.0
2017-Dec-14 05:12N 45°29' E 036°39'0 0.0
2017-Dec-14 05:00N 45°29' E 036°39'  
2017-Dec-08 23:09N 45°32' E 036°46'1 8.2
2017-Dec-08 23:00N 45°31' E 036°45'4 8.2
2017-Dec-08 22:30N 45°28' E 036°42'4 8.2
2017-Dec-08 22:00N 45°24' E 036°41'4 7.4
2017-Dec-08 21:30N 45°21' E 036°38'4 8.7
2017-Dec-08 21:00N 45°19' E 036°32'4 7.3
2017-Dec-08 20:30N 45°16' E 036°29'4 6.8
2017-Dec-08 19:59N 45°13' E 036°29'  

Dump ship's entire track history